Wyndham P.O., Western Australia

1:42 AM AWST on September 27, 2016 (GMT +0800)
Kununurra | | Change Station

Elev 144 ft 15.78 °S, 128.71 °E | Updated 12 minutes ago

Overcast
Overcast
79 °F
Feels Like 79 °F
N
9
Wind Variable Wind from North

Today
High -- | Low -- °F
--% Chance of Precip.
Yesterday
High -- | Low -- °F
Precip. -- in
Pressure 29.77 in
Visibility 6.2 miles
Clouds Overcast 12500 ft
Dew Point 72 °F
Humidity 78%
Rainfall 0.00 in
Snow Depth Not available.
5:13 AM 5:23 PM
Waning Crescent, 17% visible
METAR YPKU 261730Z AUTO 01008KT 9999 // OVC125 26/22 Q1008
Pressure 29.77 in
Visibility 6.2 miles
Clouds Overcast 12500 ft
Dew Point 72 °F
Humidity 78%
Rainfall 0.00 in
Snow Depth Not available.
5:13 AM 5:23 PM
Waning Crescent, 17% visible
METAR YPKU 261730Z AUTO 01008KT 9999 // OVC125 26/22 Q1008

10-Day Weather Forecast

Almanac

Astronomy

Sep. 27, 2016 Rise Set
Actual Time
Civil Twilight
Nautical Twilight
Astronomical Twilight
Moon
Length of Visible Light
Length of Day
Tomorrow will be .
, % of the Moon is Illuminated

Today's Extremes

Country Highs Country Lows

Community

WunderPhotos

Upload Photos

1,941,939 photos uploaded!

WunderBlog® & News

Nearby

Air Quality

  Air Quality AQ Index Pollutant
Not available.

Snow Depth

Station Depth Elevation

Earthquake Activity

City Distance Mag. Time & Date
Minimum magnitude displayed is 2.5.

Coastal Water Temperatures

Place Temperature

Stations

Nearby Weather Stations

Station Location Temp. Windchill Dew Point Humidity Wind Precip. Elev Updated Type